Etusivu
METAR-TAF:

METAR-TAF

Lentoasemat :

Tucumán, Argentiina

Leveyspiiri: 26-51S, Pituuspiiri: 065-06W, korkeus merenpinnasta: 440 m

Tämänhetkinen sää

Tämä raportti tehtiin 41 minuuttia sitten, kello 05.00 UTC
Tuuli 5 kn pohjoisesta
Lämpötila 6°C
Kosteus 87%
Ilmanpaine 1014 hPa
Näkyvyys: 8000 m

METAR: SANT 030500Z 36005KT 8000 NSC 06/04 Q1014

Aika: 02:41 (05:41 UTC)

Sääennuste

Tämä raportti tehtiin 6 tuntia ja 41 minuuttia sitten, kello 23.00 UTC
Ennuste voimassa 03. päivästä klo 00 UTC - 03. päivään klo 24 UTC
Tuuli 3 kn eri suunnista
Näkyvyys 10 km tai enemmän
ei pilviä alle 1500 m:ssä eikä cumulonimbus-pilviä
Ajoittain
03. päivästä klo 10 UTC - 03. päivään klo 12 UTC
Näkyvyys: 5000 m
utua
Tulossa
03. päivästä klo 15 UTC - 03. päivään klo 18 UTC
Tuuli 5 kn kaakosta

TAF: SANT 022300Z 0300/0324 VRB03KT CAVOK TX22/0318Z TN05/0310Z TEMPO 0310/0312 5000 BR NSC BECMG 0315/0318 14005KT

Säähavainnot ja -ennusteet yli 4000 lentoasemalta (METAR- ja TAF-raportit).

Käytössä olevat sääasemat on merkitty karttaan keltaisilla ja punaisilla pisteillä.

Aseta hiiri pisteen päälle nähdäksesi sääaseman nimen.

Klikkaa sitten nähdäksesi säähavainnot ja -ennusteet.

Kartan vaihtaminen: klikkaa mustalla rastilla varustettuja vihreitä pisteitä, niin voit zoomata sisään; viivalla varustettua vihreää pistettä, niin voit zoomata ulos tai vihreitä nuolia, niin pääset viereisille kartoille.


METAR-TAF: